Time;durP1;ratioP1;P1;durP2;ratioP2;P2;SDS_P1;SDS_P2;PMS_P1;PMS_P2;Temp;Humidity;BMP_temperature;BMP_pressure;BME280_temperature;BME280_humidity;BME280_pressure;Samples;Min_cycle;Max_cycle;Signal;HPM_P1;HPM_P2
2023/07/27 00:02:30;;;;;;;6.65;6.03;;;;;;;;;;10374648;27;20063;-63
2023/07/27 00:07:29;;;;;;;6.53;5.93;;;;;;;;;;10376537;28;20109;-63
2023/07/27 00:12:27;;;;;;;7.18;6.20;;;;;;;;;;10376357;28;20075;-64
2023/07/27 00:17:25;;;;;;;6.50;5.88;;;;;;;;;;10371425;28;20526;-64
2023/07/27 00:22:25;;;;;;;6.40;5.90;;;;;;;;;;10372179;28;20051;-63
2023/07/27 00:27:23;;;;;;;7.55;6.85;;;;;;;;;;10372644;28;20079;-63
2023/07/27 00:32:21;;;;;;;6.75;6.15;;;;;;;;;;10371947;28;20036;-64
2023/07/27 00:37:19;;;;;;;5.85;5.32;;;;;;;;;;10367569;28;20071;-63
2023/07/27 00:42:19;;;;;;;7.47;6.10;;;;;;;;;;10370204;28;20064;-64
2023/07/27 00:47:17;;;;;;;7.32;5.35;;;;;;;;;;10374099;28;20067;-64
2023/07/27 00:52:16;;;;;;;9.10;6.30;;;;;;;;;;10372337;28;20071;-64
2023/07/27 00:57:19;;;;;;;5.43;4.93;;;;;;;;;;10367112;28;20063;-64
2023/07/27 01:02:17;;;;;;;13.60;6.60;;;;;;;;;;10371780;28;20871;-64
2023/07/27 01:07:15;;;;;;;5.40;4.93;;;;;;;;;;10367789;28;20503;-63
2023/07/27 01:12:17;;;;;;;4.57;4.18;;;;;;;;;;10354257;28;20055;-64
2023/07/27 01:17:21;;;;;;;6.53;4.10;;;;;;;;;;10367235;28;20090;-63
2023/07/27 01:22:26;;;;;;;7.05;4.13;;;;;;;;;;10370062;28;20056;-64
2023/07/27 01:27:34;;;;;;;3.65;3.22;;;;;;;;;;10370910;28;20070;-64
2023/07/27 01:32:34;;;;;;;7.40;3.10;;;;;;;;;;10361665;28;20438;-64
2023/07/27 01:37:34;;;;;;;4.80;3.03;;;;;;;;;;10371367;28;20916;-63
2023/07/27 01:42:33;;;;;;;3.38;3.08;;;;;;;;;;10370671;28;20063;-62
2023/07/27 01:47:31;;;;;;;4.07;3.30;;;;;;;;;;10353251;28;20067;-63
2023/07/27 01:52:32;;;;;;;3.28;2.75;;;;;;;;;;10369820;28;20068;-64
2023/07/27 01:57:31;;;;;;;3.92;2.65;;;;;;;;;;10352228;28;20078;-64
2023/07/27 02:02:32;;;;;;;2.72;2.10;;;;;;;;;;10360364;28;20059;-63
2023/07/27 02:07:36;;;;;;;2.47;2.28;;;;;;;;;;10353989;28;20109;-64
2023/07/27 02:12:34;;;;;;;;;;;;;;;;;;10356706;28;20461;-63
2023/07/27 02:17:36;;;;;;;3.13;2.40;;;;;;;;;;10367223;28;19966;-63
2023/07/27 02:22:35;;;;;;;4.10;1.83;;;;;;;;;;10368864;28;20079;-63
2023/07/27 02:27:34;;;;;;;6.07;1.73;;;;;;;;;;10373716;28;20070;-62
2023/07/27 02:32:34;;;;;;;2.80;1.95;;;;;;;;;;10358686;28;20066;-63
2023/07/27 02:37:32;;;;;;;2.22;1.70;;;;;;;;;;10367311;28;20082;-63
2023/07/27 02:42:31;;;;;;;1.85;1.50;;;;;;;;;;10374120;28;20071;-62
2023/07/27 02:47:31;;;;;;;3.55;1.52;;;;;;;;;;10364954;28;20080;-63
2023/07/27 02:52:29;;;;;;;1.85;1.75;;;;;;;;;;10375526;28;20548;-63
2023/07/27 02:57:33;;;;;;;5.90;1.88;;;;;;;;;;10359818;28;20547;-62
2023/07/27 03:02:33;;;;;;;3.42;1.83;;;;;;;;;;10360102;27;20071;-63
2023/07/27 03:07:32;;;;;;;5.30;1.70;;;;;;;;;;10357022;28;20079;-63
2023/07/27 03:12:31;;;;;;;2.17;1.95;;;;;;;;;;10361393;27;20072;-63
2023/07/27 03:17:29;;;;;;;3.20;1.88;;;;;;;;;;10379502;27;20071;-64
2023/07/27 03:22:29;;;;;;;2.22;1.80;;;;;;;;;;10359707;28;20105;-64
2023/07/27 03:27:27;;;;;;;4.13;1.80;;;;;;;;;;10379503;27;20078;-64
2023/07/27 03:32:25;;;;;;;4.70;2.20;;;;;;;;;;10365876;28;20071;-63
2023/07/27 03:37:23;;;;;;;3.42;1.85;;;;;;;;;;10374648;28;20647;-63
2023/07/27 03:42:23;;;;;;;3.30;1.70;;;;;;;;;;10357388;28;20075;-63
2023/07/27 03:47:21;;;;;;;4.15;1.90;;;;;;;;;;10357716;28;20082;-63
2023/07/27 03:52:19;;;;;;;2.25;1.63;;;;;;;;;;10358792;28;20472;-63
2023/07/27 03:57:19;;;;;;;3.72;2.38;;;;;;;;;;10356774;28;20075;-63
2023/07/27 04:02:18;;;;;;;4.80;1.83;;;;;;;;;;10360021;28;20071;-63
2023/07/27 04:07:16;;;;;;;3.75;2.25;;;;;;;;;;10358098;28;20078;-63
2023/07/27 04:12:15;;;;;;;3.92;1.80;;;;;;;;;;10369058;28;20064;-63
2023/07/27 04:17:13;;;;;;;3.63;1.60;;;;;;;;;;10350170;28;20071;-63
2023/07/27 04:22:13;;;;;;;3.97;1.42;;;;;;;;;;10353069;28;20083;-63
2023/07/27 04:27:11;;;;;;;1.73;1.30;;;;;;;;;;10359204;28;20080;-63
2023/07/27 04:32:09;;;;;;;4.13;1.30;;;;;;;;;;10374363;28;20063;-63
2023/07/27 04:37:07;;;;;;;3.20;1.80;;;;;;;;;;10359695;28;20068;-63
2023/07/27 04:42:07;;;;;;;3.75;1.52;;;;;;;;;;10373938;28;20083;-63
2023/07/27 04:47:06;;;;;;;3.70;1.83;;;;;;;;;;10370477;28;20123;-63
2023/07/27 04:52:07;;;;;;;3.22;1.30;;;;;;;;;;10365844;28;20067;-63
2023/07/27 04:57:06;;;;;;;1.95;1.52;;;;;;;;;;10355174;28;20079;-63
2023/07/27 05:02:05;;;;;;;6.88;1.80;;;;;;;;;;10354773;27;20071;-63
2023/07/27 05:07:03;;;;;;;3.15;1.58;;;;;;;;;;10376249;27;20071;-63
2023/07/27 05:12:01;;;;;;;4.30;1.40;;;;;;;;;;10368775;27;20076;-63
2023/07/27 05:17:01;;;;;;;4.32;1.50;;;;;;;;;;10368618;28;20078;-63
2023/07/27 05:21:59;;;;;;;2.03;1.70;;;;;;;;;;10371678;28;20063;-63
2023/07/27 05:26:57;;;;;;;4.68;1.05;;;;;;;;;;10365876;28;20072;-63
2023/07/27 05:31:55;;;;;;;25.92;23.50;;;;;;;;;;10350724;28;20090;-63
2023/07/27 05:36:55;;;;;;;2.17;1.23;;;;;;;;;;10369850;28;20078;-63
2023/07/27 05:41:53;;;;;;;2.03;1.35;;;;;;;;;;10369989;28;20071;-63
2023/07/27 05:46:55;;;;;;;5.45;1.20;;;;;;;;;;10368190;28;20066;-63
2023/07/27 05:51:55;;;;;;;4.40;1.20;;;;;;;;;;10369985;28;20513;-63
2023/07/27 05:56:53;;;;;;;3.38;2.50;;;;;;;;;;10355906;28;20074;-63
2023/07/27 06:01:52;;;;;;;2.55;1.35;;;;;;;;;;10371703;28;20453;-63
2023/07/27 06:06:51;;;;;;;6.05;1.58;;;;;;;;;;10370383;28;20071;-63
2023/07/27 06:11:52;;;;;;;2.20;1.27;;;;;;;;;;10368841;28;20464;-63
2023/07/27 06:16:50;;;;;;;1.23;1.20;;;;;;;;;;10372120;28;20071;-63
2023/07/27 06:21:48;;;;;;;2.22;1.30;;;;;;;;;;10359522;28;20067;-63
2023/07/27 06:26:46;;;;;;;3.75;1.48;;;;;;;;;;10370451;28;20067;-63
2023/07/27 06:31:46;;;;;;;1.05;0.95;;;;;;;;;;10372788;28;20074;-63
2023/07/27 06:36:45;;;;;;;5.07;1.08;;;;;;;;;;10371423;28;20056;-63
2023/07/27 06:41:43;;;;;;;2.03;1.25;;;;;;;;;;10368791;28;20068;-62
2023/07/27 06:46:43;;;;;;;7.43;1.30;;;;;;;;;;10347906;28;20075;-64
2023/07/27 06:51:43;;;;;;;3.78;1.80;;;;;;;;;;10370487;28;20082;-65
2023/07/27 06:56:41;;;;;;;3.78;1.10;;;;;;;;;;10359585;28;20090;-64
2023/07/27 07:01:40;;;;;;;2.30;1.02;;;;;;;;;;10361306;28;20462;-64
2023/07/27 07:06:40;;;;;;;1.67;1.10;;;;;;;;;;10368653;28;20086;-64
2023/07/27 07:11:40;;;;;;;5.05;1.40;;;;;;;;;;10372452;28;20063;-65
2023/07/27 07:16:38;;;;;;;2.50;1.23;;;;;;;;;;10374218;28;20068;-64
2023/07/27 07:21:36;;;;;;;4.68;1.50;;;;;;;;;;10374878;28;20501;-63
2023/07/27 07:26:34;;;;;;;3.65;1.58;;;;;;;;;;10377574;28;20066;-64
2023/07/27 07:31:34;;;;;;;2.38;1.40;;;;;;;;;;10375324;28;20094;-65
2023/07/27 07:36:33;;;;;;;2.78;0.90;;;;;;;;;;10376054;28;20080;-65
2023/07/27 07:41:34;;;;;;;5.07;1.30;;;;;;;;;;10374040;28;20075;-64
2023/07/27 07:46:34;;;;;;;3.60;1.42;;;;;;;;;;10361317;28;20079;-64
2023/07/27 07:51:33;;;;;;;3.45;1.80;;;;;;;;;;10371239;28;20078;-65
2023/07/27 07:56:31;;;;;;;2.22;1.65;;;;;;;;;;10375245;27;20072;-65
2023/07/27 08:01:29;;;;;;;5.00;2.22;;;;;;;;;;10369445;28;20067;-64
2023/07/27 08:06:29;;;;;;;6.93;1.33;;;;;;;;;;10372899;28;20304;-66
2023/07/27 08:11:30;;;;;;;5.85;1.40;;;;;;;;;;10377372;28;20507;-66
2023/07/27 08:16:29;;;;;;;4.70;1.60;;;;;;;;;;10374776;28;20067;-66
2023/07/27 08:21:29;;;;;;;2.63;0.88;;;;;;;;;;10374119;28;20082;-65
2023/07/27 08:26:29;;;;;;;1.70;1.23;;;;;;;;;;10373590;28;20501;-66
2023/07/27 08:31:27;;;;;;;3.10;1.20;;;;;;;;;;10377465;28;20070;-66
2023/07/27 08:36:25;;;;;;;2.15;1.08;;;;;;;;;;10374957;28;20063;-66
2023/07/27 08:41:25;;;;;;;1.70;1.23;;;;;;;;;;10373892;28;20116;-66
2023/07/27 08:46:24;;;;;;;2.55;1.35;;;;;;;;;;10377377;28;20082;-66
2023/07/27 08:51:25;;;;;;;4.22;1.38;;;;;;;;;;10373651;28;20468;-65
2023/07/27 08:56:26;;;;;;;4.63;1.25;;;;;;;;;;10412544;27;20091;-65
2023/07/27 09:01:26;;;;;;;2.22;1.33;;;;;;;;;;10413763;27;20547;-65
2023/07/27 09:06:36;;;;;;;2.75;1.38;;;;;;;;;;10416320;27;20069;-66
2023/07/27 09:11:36;;;;;;;1.83;1.30;;;;;;;;;;10410160;27;20520;-66
2023/07/27 09:16:34;;;;;;;4.18;1.75;;;;;;;;;;10413267;27;20075;-66
2023/07/27 09:21:39;;;;;;;10.55;1.55;;;;;;;;;;10413388;27;20082;-65
2023/07/27 09:26:43;;;;;;;4.25;1.90;;;;;;;;;;10409090;27;20055;-66
2023/07/27 09:31:45;;;;;;;3.00;1.27;;;;;;;;;;10414840;27;20075;-66
2023/07/27 09:36:44;;;;;;;1.52;1.33;;;;;;;;;;10414184;27;20089;-65
2023/07/27 09:41:44;;;;;;;4.38;1.80;;;;;;;;;;10413288;27;20074;-65
2023/07/27 09:46:42;;;;;;;2.17;1.30;;;;;;;;;;10412037;27;20075;-65
2023/07/27 09:51:41;;;;;;;1.48;1.38;;;;;;;;;;10413563;27;20078;-65
2023/07/27 09:56:39;;;;;;;3.08;1.20;;;;;;;;;;10330421;28;20072;-65
2023/07/27 10:01:41;;;;;;;3.28;1.42;;;;;;;;;;10347600;28;20138;-65
2023/07/27 10:06:40;;;;;;;4.30;1.67;;;;;;;;;;10370006;28;20074;-66
2023/07/27 10:11:53;;;;;;;3.47;1.50;;;;;;;;;;10372275;28;20066;-66
2023/07/27 10:16:59;;;;;;;5.43;1.70;;;;;;;;;;10371915;28;20071;-65
2023/07/27 10:22:06;;;;;;;3.17;1.52;;;;;;;;;;10372214;28;20090;-65
2023/07/27 10:27:05;;;;;;;4.65;1.10;;;;;;;;;;10373762;28;20067;-65
2023/07/27 10:32:05;;;;;;;2.60;1.13;;;;;;;;;;10371227;28;20063;-67
2023/07/27 10:37:04;;;;;;;2.25;1.20;;;;;;;;;;10367632;28;20075;-66
2023/07/27 10:42:04;;;;;;;1.50;1.25;;;;;;;;;;10369497;28;20083;-66
2023/07/27 10:47:07;;;;;;;1.58;1.40;;;;;;;;;;10367432;28;20071;-66
2023/07/27 10:52:05;;;;;;;3.25;1.77;;;;;;;;;;10382373;27;20079;-66
2023/07/27 10:57:06;;;;;;;5.05;1.73;;;;;;;;;;10420331;27;20109;-66
2023/07/27 11:02:10;;;;;;;7.70;2.60;;;;;;;;;;10421973;27;20075;-66
2023/07/27 11:07:10;;;;;;;3.38;2.42;;;;;;;;;;10419503;27;20067;-65
2023/07/27 11:12:08;;;;;;;3.65;2.33;;;;;;;;;;10419810;27;20070;-64
2023/07/27 11:17:08;;;;;;;4.00;2.92;;;;;;;;;;10418410;27;20129;-65
2023/07/27 11:22:06;;;;;;;7.15;2.50;;;;;;;;;;10418035;27;20084;-65
2023/07/27 11:27:06;;;;;;;2.33;1.80;;;;;;;;;;10416056;27;20075;-63
2023/07/27 11:32:05;;;;;;;3.00;1.90;;;;;;;;;;10419994;27;20075;-64
2023/07/27 11:37:05;;;;;;;3.20;2.55;;;;;;;;;;10418573;27;20070;-65
2023/07/27 11:42:06;;;;;;;3.45;2.70;;;;;;;;;;10419849;27;20078;-64
2023/07/27 11:47:04;;;;;;;4.60;2.60;;;;;;;;;;10421499;27;20097;-64
2023/07/27 11:52:08;;;;;;;7.32;3.13;;;;;;;;;;10417691;27;20067;-65
2023/07/27 11:57:07;;;;;;;;;;;;;;;;;;10414682;27;20077;-65
2023/07/27 12:02:05;;;;;;;8.57;2.97;;;;;;;;;;10418838;27;19962;-66
2023/07/27 12:07:04;;;;;;;5.68;2.40;;;;;;;;;;10411924;27;20079;-66
2023/07/27 12:12:04;;;;;;;14.35;5.97;;;;;;;;;;10421444;27;20059;-66
2023/07/27 12:17:10;;;;;;;4.03;3.03;;;;;;;;;;10417019;27;20059;-65
2023/07/27 12:22:28;;;;;;;5.10;2.50;;;;;;;;;;10413661;27;20087;-65
2023/07/27 12:27:30;;;;;;;6.10;3.60;;;;;;;;;;10416802;27;20515;-65
2023/07/27 12:32:29;;;;;;;4.28;3.00;;;;;;;;;;10418742;27;20074;-65
2023/07/27 12:37:27;;;;;;;3.58;2.30;;;;;;;;;;10416722;27;20086;-66
2023/07/27 12:42:28;;;;;;;3.28;2.15;;;;;;;;;;10415806;27;20605;-65
2023/07/27 12:47:30;;;;;;;3.30;2.30;;;;;;;;;;10414317;27;20059;-66
2023/07/27 12:52:28;;;;;;;2.90;1.80;;;;;;;;;;10414486;27;20083;-66
2023/07/27 12:57:27;;;;;;;3.53;1.95;;;;;;;;;;10413451;27;20071;-65
2023/07/27 13:02:25;;;;;;;1.88;1.70;;;;;;;;;;10415226;27;20457;-66
2023/07/27 13:07:24;;;;;;;5.15;1.48;;;;;;;;;;10414488;27;20066;-66
2023/07/27 13:12:23;;;;;;;3.70;1.65;;;;;;;;;;10418598;27;20059;-65
2023/07/27 13:17:21;;;;;;;2.65;1.70;;;;;;;;;;10414965;27;20523;-66
2023/07/27 13:22:19;;;;;;;4.82;2.60;;;;;;;;;;10413742;27;20106;-65
2023/07/27 13:27:19;;;;;;;2.97;2.30;;;;;;;;;;10413387;27;20067;-65
2023/07/27 13:32:18;;;;;;;2.28;1.63;;;;;;;;;;10414139;27;20074;-64
2023/07/27 13:37:16;;;;;;;13.35;3.75;;;;;;;;;;10412649;27;20071;-63
2023/07/27 13:42:14;;;;;;;3.47;2.28;;;;;;;;;;10413749;27;20503;-63
2023/07/27 13:47:16;;;;;;;3.40;2.00;;;;;;;;;;10408509;27;20067;-64
2023/07/27 13:52:14;;;;;;;3.83;2.60;;;;;;;;;;10411033;27;20079;-66
2023/07/27 13:57:12;;;;;;;4.15;2.30;;;;;;;;;;10412022;27;20066;-64
2023/07/27 14:02:11;;;;;;;4.47;2.45;;;;;;;;;;10411854;27;20067;-64
2023/07/27 14:07:21;;;;;;;4.40;2.42;;;;;;;;;;10414430;27;20092;-67
2023/07/27 14:12:19;;;;;;;2.83;2.42;;;;;;;;;;10410983;28;20531;-65
2023/07/27 14:17:17;;;;;;;3.25;2.67;;;;;;;;;;10411887;28;20101;-65
2023/07/27 14:22:17;;;;;;;3.42;2.00;;;;;;;;;;10413192;27;20473;-66
2023/07/27 14:27:16;;;;;;;2.90;2.38;;;;;;;;;;10426637;27;20500;-65
2023/07/27 14:32:14;;;;;;;3.45;2.25;;;;;;;;;;10424202;27;20491;-65
2023/07/27 14:37:12;;;;;;;2.92;2.22;;;;;;;;;;10419592;27;20070;-64
2023/07/27 14:42:12;;;;;;;4.60;2.35;;;;;;;;;;10420104;27;20452;-64
2023/07/27 14:47:11;;;;;;;3.22;2.10;;;;;;;;;;10420928;27;20480;-65
2023/07/27 14:52:09;;;;;;;2.92;1.85;;;;;;;;;;10417829;27;20095;-65
2023/07/27 14:57:08;;;;;;;3.00;2.63;;;;;;;;;;10423155;27;20074;-65
2023/07/27 15:02:12;;;;;;;12.40;3.90;;;;;;;;;;10419677;27;20082;-64
2023/07/27 15:07:11;;;;;;;4.63;2.42;;;;;;;;;;10415302;27;20090;-66
2023/07/27 15:12:09;;;;;;;4.32;1.75;;;;;;;;;;10421913;27;20064;-65
2023/07/27 15:17:07;;;;;;;3.28;2.22;;;;;;;;;;10418462;27;20067;-64
2023/07/27 15:22:07;;;;;;;6.85;2.60;;;;;;;;;;10418297;27;20126;-64
2023/07/27 15:27:06;;;;;;;3.28;1.92;;;;;;;;;;10417293;27;20063;-64
2023/07/27 15:32:05;;;;;;;2.65;1.92;;;;;;;;;;10423924;27;20071;-65
2023/07/27 15:37:03;;;;;;;1.80;1.23;;;;;;;;;;10419747;27;20066;-63
2023/07/27 15:42:03;;;;;;;3.78;2.03;;;;;;;;;;10413832;27;20055;-63
2023/07/27 15:47:01;;;;;;;3.20;2.13;;;;;;;;;;10416478;27;20546;-64
2023/07/27 15:51:59;;;;;;;2.33;1.90;;;;;;;;;;10418582;27;20075;-64
2023/07/27 15:56:57;;;;;;;1.83;1.73;;;;;;;;;;10403793;27;20075;-64
2023/07/27 16:01:57;;;;;;;2.47;1.50;;;;;;;;;;10415445;27;20063;-63
2023/07/27 16:06:55;;;;;;;9.52;4.47;;;;;;;;;;10412367;27;20067;-65
2023/07/27 16:11:54;;;;;;;2.40;2.20;;;;;;;;;;10409298;27;20079;-64
2023/07/27 16:16:52;;;;;;;3.05;2.10;;;;;;;;;;10401672;27;20071;-65
2023/07/27 16:21:52;;;;;;;5.22;2.63;;;;;;;;;;10418228;27;20445;-64
2023/07/27 16:26:51;;;;;;;3.67;2.50;;;;;;;;;;10402039;27;20090;-64
2023/07/27 16:31:49;;;;;;;2.45;1.85;;;;;;;;;;10413988;27;20059;-63
2023/07/27 16:36:47;;;;;;;1.95;1.73;;;;;;;;;;10409764;27;20428;-64
2023/07/27 16:41:47;;;;;;;1.88;1.60;;;;;;;;;;10415588;27;20070;-63
2023/07/27 16:46:46;;;;;;;7.05;2.30;;;;;;;;;;10412347;27;20067;-63
2023/07/27 16:51:50;;;;;;;2.95;1.80;;;;;;;;;;10401947;27;20101;-64
2023/07/27 16:56:52;;;;;;;3.00;1.63;;;;;;;;;;10414932;27;20074;-64
2023/07/27 17:01:50;;;;;;;4.25;2.00;;;;;;;;;;10412016;27;20085;-65
2023/07/27 17:06:49;;;;;;;3.70;1.50;;;;;;;;;;10414688;27;20066;-66
2023/07/27 17:11:47;;;;;;;5.25;2.65;;;;;;;;;;10413641;27;20070;-65
2023/07/27 17:16:49;;;;;;;3.10;1.67;;;;;;;;;;10411285;27;20074;-64
2023/07/27 17:21:48;;;;;;;2.70;1.73;;;;;;;;;;10409527;27;20512;-65
2023/07/27 17:26:47;;;;;;;3.53;1.55;;;;;;;;;;10407296;27;20066;-65
2023/07/27 17:31:45;;;;;;;1.67;1.58;;;;;;;;;;10412433;27;20457;-64
2023/07/27 17:36:51;;;;;;;6.07;2.70;;;;;;;;;;10415529;27;20063;-65
2023/07/27 17:41:49;;;;;;;3.72;3.22;;;;;;;;;;10411013;27;20182;-65
2023/07/27 17:46:47;;;;;;;3.78;1.55;;;;;;;;;;10411924;27;20547;-65
2023/07/27 17:51:47;;;;;;;6.32;3.20;;;;;;;;;;10410060;27;20073;-67
2023/07/27 17:56:45;;;;;;;3.40;2.35;;;;;;;;;;10412982;27;20079;-65
2023/07/27 18:01:44;;;;;;;2.70;2.42;;;;;;;;;;10415025;27;20063;-65
2023/07/27 18:06:42;;;;;;;3.22;2.55;;;;;;;;;;10409934;27;20067;-64
2023/07/27 18:11:41;;;;;;;5.15;2.63;;;;;;;;;;10410597;28;20073;-66
2023/07/27 18:16:40;;;;;;;5.72;2.78;;;;;;;;;;10405068;28;20527;-65
2023/07/27 18:21:38;;;;;;;2.80;2.50;;;;;;;;;;10411810;28;20070;-66
2023/07/27 18:26:41;;;;;;;5.63;2.20;;;;;;;;;;10408414;28;20084;-67
2023/07/27 18:31:41;;;;;;;3.10;2.27;;;;;;;;;;10390883;28;20082;-66
2023/07/27 18:36:39;;;;;;;2.78;2.08;;;;;;;;;;10409640;28;20542;-65
2023/07/27 18:41:38;;;;;;;3.97;2.53;;;;;;;;;;10410932;28;20352;-65
2023/07/27 18:46:38;;;;;;;2.67;2.20;;;;;;;;;;10410791;28;20066;-65
2023/07/27 18:51:38;;;;;;;3.35;2.15;;;;;;;;;;10414893;28;20074;-64
2023/07/27 18:56:36;;;;;;;4.75;2.10;;;;;;;;;;10413620;28;20075;-66
2023/07/27 19:01:35;;;;;;;6.00;2.08;;;;;;;;;;10409744;28;20075;-65
2023/07/27 19:06:33;;;;;;;2.83;1.88;;;;;;;;;;10410732;28;20067;-65
2023/07/27 19:11:33;;;;;;;3.85;2.00;;;;;;;;;;10414913;27;20079;-64
2023/07/27 19:16:32;;;;;;;5.93;2.03;;;;;;;;;;10418889;27;20067;-66
2023/07/27 19:21:30;;;;;;;4.10;2.30;;;;;;;;;;10419276;27;20538;-66
2023/07/27 19:26:33;;;;;;;2.83;2.15;;;;;;;;;;10417527;27;20090;-66
2023/07/27 19:31:33;;;;;;;2.15;1.95;;;;;;;;;;10414275;27;20075;-65
2023/07/27 19:36:31;;;;;;;2.40;1.92;;;;;;;;;;10412475;27;20063;-66
2023/07/27 19:41:31;;;;;;;2.72;2.38;;;;;;;;;;10411761;27;20062;-66
2023/07/27 19:46:29;;;;;;;3.97;2.22;;;;;;;;;;10416381;27;20059;-65
2023/07/27 19:51:29;;;;;;;4.03;2.25;;;;;;;;;;10418046;27;20640;-65
2023/07/27 19:56:27;;;;;;;3.08;1.90;;;;;;;;;;10417740;27;20098;-64
2023/07/27 20:01:26;;;;;;;2.72;2.17;;;;;;;;;;10416140;27;20481;-65
2023/07/27 20:06:25;;;;;;;2.25;1.80;;;;;;;;;;10418121;27;20086;-64
2023/07/27 20:11:24;;;;;;;8.65;2.60;;;;;;;;;;10418128;27;20500;-65
2023/07/27 20:16:23;;;;;;;6.20;2.38;;;;;;;;;;10411863;27;20050;-65
2023/07/27 20:21:21;;;;;;;10.88;2.97;;;;;;;;;;10414919;27;20081;-65
2023/07/27 20:26:20;;;;;;;4.35;2.17;;;;;;;;;;10414825;27;20077;-65
2023/07/27 20:31:19;;;;;;;2.13;1.90;;;;;;;;;;10418436;27;20078;-65
2023/07/27 20:36:21;;;;;;;3.60;1.80;;;;;;;;;;10414215;27;20078;-64
2023/07/27 20:41:19;;;;;;;4.13;2.08;;;;;;;;;;10397722;27;20083;-65
2023/07/27 20:46:18;;;;;;;6.03;3.00;;;;;;;;;;10409618;27;20070;-65
2023/07/27 20:51:17;;;;;;;4.00;1.65;;;;;;;;;;10413446;27;20526;-65
2023/07/27 20:56:16;;;;;;;2.28;1.52;;;;;;;;;;10369091;28;20080;-65
2023/07/27 21:01:14;;;;;;;2.72;2.00;;;;;;;;;;10372282;28;20066;-66
2023/07/27 21:06:13;;;;;;;5.80;1.95;;;;;;;;;;10375433;28;20075;-63
2023/07/27 21:11:13;;;;;;;2.05;1.85;;;;;;;;;;10371672;28;20078;-63
2023/07/27 21:16:11;;;;;;;3.45;1.65;;;;;;;;;;10374908;28;20063;-63
2023/07/27 21:21:16;;;;;;;2.75;2.00;;;;;;;;;;10368989;28;20071;-63
2023/07/27 21:26:16;;;;;;;6.75;2.28;;;;;;;;;;10365893;28;20085;-63
2023/07/27 21:31:15;;;;;;;5.10;1.67;;;;;;;;;;10372790;28;20068;-64
2023/07/27 21:36:13;;;;;;;4.85;1.95;;;;;;;;;;10369978;28;20071;-63
2023/07/27 21:41:11;;;;;;;3.38;2.05;;;;;;;;;;10370017;28;20520;-64
2023/07/27 21:46:11;;;;;;;5.10;2.00;;;;;;;;;;10372822;28;20078;-64
2023/07/27 21:51:09;;;;;;;2.22;2.00;;;;;;;;;;10367201;28;20531;-64
2023/07/27 21:56:07;;;;;;;2.13;1.90;;;;;;;;;;10410802;27;20078;-64
2023/07/27 22:01:06;;;;;;;5.40;1.77;;;;;;;;;;10413127;27;20534;-63
2023/07/27 22:06:05;;;;;;;5.13;2.10;;;;;;;;;;10413008;27;20090;-63
2023/07/27 22:11:04;;;;;;;2.10;1.85;;;;;;;;;;10411733;27;20067;-64
2023/07/27 22:16:02;;;;;;;8.38;1.92;;;;;;;;;;10413771;28;20039;-64
2023/07/27 22:21:01;;;;;;;3.45;2.22;;;;;;;;;;10412427;28;20059;-64
2023/07/27 22:26:00;;;;;;;2.20;2.00;;;;;;;;;;10413727;28;20079;-64
2023/07/27 22:30:58;;;;;;;2.47;2.17;;;;;;;;;;10406847;28;20083;-65
2023/07/27 22:35:57;;;;;;;3.25;2.00;;;;;;;;;;10413297;28;20098;-64
2023/07/27 22:40:55;;;;;;;2.30;2.05;;;;;;;;;;10411777;28;20063;-64
2023/07/27 22:45:57;;;;;;;2.05;1.85;;;;;;;;;;10419404;27;20070;-64
2023/07/27 22:50:55;;;;;;;3.42;1.75;;;;;;;;;;10415545;27;20078;-64
2023/07/27 22:55:54;;;;;;;2.17;1.88;;;;;;;;;;10417576;27;20067;-64
2023/07/27 23:00:52;;;;;;;2.47;2.28;;;;;;;;;;10419573;27;20074;-64
2023/07/27 23:05:51;;;;;;;3.05;1.92;;;;;;;;;;10419422;27;20070;-64
2023/07/27 23:10:50;;;;;;;5.30;2.33;;;;;;;;;;10419339;27;20455;-64
2023/07/27 23:15:48;;;;;;;2.47;1.73;;;;;;;;;;10401543;27;20075;-63
2023/07/27 23:20:46;;;;;;;3.42;2.22;;;;;;;;;;10422565;27;20086;-64
2023/07/27 23:25:45;;;;;;;4.43;2.08;;;;;;;;;;10418473;27;20085;-64
2023/07/27 23:30:44;;;;;;;1.92;1.75;;;;;;;;;;10421185;27;20074;-64
2023/07/27 23:35:42;;;;;;;4.53;2.40;;;;;;;;;;10419519;27;20035;-64
2023/07/27 23:40:41;;;;;;;6.20;2.53;;;;;;;;;;10417411;27;20082;-64
2023/07/27 23:45:41;;;;;;;3.55;2.42;;;;;;;;;;10419445;27;20082;-64
2023/07/27 23:50:39;;;;;;;4.35;2.00;;;;;;;;;;10418497;27;20079;-64
2023/07/27 23:55:37;;;;;;;6.63;2.20;;;;;;;;;;10414983;27;20093;-64
